sensor_id;sensor_type;location;lat;lon;timestamp;P1;durP1;ratioP1;P2;durP2;ratioP2
41167;SDS011;26906;45.658;9.272;2023-01-19T06:39:11;31.92;;;16.77;;
41167;SDS011;26906;45.658;9.272;2023-01-19T06:41:37;17.77;;;9.75;;
41167;SDS011;26906;45.658;9.272;2023-01-19T06:44:03;14.07;;;8.85;;
41167;SDS011;26906;45.658;9.272;2023-01-19T06:46:30;15.75;;;9.38;;
41167;SDS011;26906;45.658;9.272;2023-01-19T06:48:56;13.27;;;7.95;;
41167;SDS011;26906;45.658;9.272;2023-01-19T06:51:21;12.10;;;7.20;;
41167;SDS011;26906;45.658;9.272;2023-01-19T06:53:47;11.95;;;6.45;;
41167;SDS011;26906;45.658;9.272;2023-01-19T06:56:13;9.40;;;5.22;;
41167;SDS011;26906;45.658;9.272;2023-01-19T06:58:40;6.35;;;4.38;;
41167;SDS011;26906;45.658;9.272;2023-01-19T07:01:07;8.60;;;5.13;;
41167;SDS011;26906;45.658;9.272;2023-01-19T07:03:33;8.77;;;4.75;;
41167;SDS011;26906;45.658;9.272;2023-01-19T07:06:02;9.73;;;4.57;;
41167;SDS011;26906;45.658;9.272;2023-01-19T07:08:32;6.72;;;3.95;;
41167;SDS011;26906;45.658;9.272;2023-01-19T07:10:59;4.22;;;2.85;;
41167;SDS011;26906;45.658;9.272;2023-01-19T07:13:26;5.00;;;3.47;;
41167;SDS011;26906;45.658;9.272;2023-01-19T07:15:52;5.22;;;2.80;;
41167;SDS011;26906;45.658;9.272;2023-01-19T07:18:18;2.85;;;2.45;;
41167;SDS011;26906;45.658;9.272;2023-01-19T07:20:44;2.63;;;2.20;;
41167;SDS011;26906;45.658;9.272;2023-01-19T07:23:10;2.58;;;2.05;;
41167;SDS011;26906;45.658;9.272;2023-01-19T07:25:37;2.42;;;1.70;;
41167;SDS011;26906;45.658;9.272;2023-01-19T07:28:03;3.35;;;1.75;;
41167;SDS011;26906;45.658;9.272;2023-01-19T07:30:29;2.10;;;1.52;;
41167;SDS011;26906;45.658;9.272;2023-01-19T07:32:55;2.38;;;1.80;;
41167;SDS011;26906;45.658;9.272;2023-01-19T07:35:25;2.67;;;1.70;;
41167;SDS011;26906;45.658;9.272;2023-01-19T07:37:51;3.33;;;1.80;;
41167;SDS011;26906;45.658;9.272;2023-01-19T07:40:16;66.75;;;14.95;;
41167;SDS011;26906;45.658;9.272;2023-01-19T07:42:46;5.05;;;2.60;;
41167;SDS011;26906;45.658;9.272;2023-01-19T07:45:14;3.90;;;2.28;;
41167;SDS011;26906;45.658;9.272;2023-01-19T07:47:43;2.53;;;1.73;;
41167;SDS011;26906;45.658;9.272;2023-01-19T07:50:10;2.67;;;1.55;;
41167;SDS011;26906;45.658;9.272;2023-01-19T07:52:37;1.30;;;1.10;;
41167;SDS011;26906;45.658;9.272;2023-01-19T07:55:03;2.25;;;1.35;;
41167;SDS011;26906;45.658;9.272;2023-01-19T07:57:31;0.95;;;0.95;;
41167;SDS011;26906;45.658;9.272;2023-01-19T07:59:59;1.35;;;1.08;;
41167;SDS011;26906;45.658;9.272;2023-01-19T08:02:25;4.22;;;1.23;;
41167;SDS011;26906;45.658;9.272;2023-01-19T08:04:51;1.50;;;1.40;;
41167;SDS011;26906;45.658;9.272;2023-01-19T08:07:17;1.83;;;1.70;;
41167;SDS011;26906;45.658;9.272;2023-01-19T08:09:43;1.88;;;1.38;;
41167;SDS011;26906;45.658;9.272;2023-01-19T08:12:08;2.10;;;1.90;;
41167;SDS011;26906;45.658;9.272;2023-01-19T08:14:34;5.63;;;3.40;;
41167;SDS011;26906;45.658;9.272;2023-01-19T08:17:00;1.52;;;1.42;;
41167;SDS011;26906;45.658;9.272;2023-01-19T08:19:26;1.23;;;1.10;;
41167;SDS011;26906;45.658;9.272;2023-01-19T08:21:52;2.00;;;1.00;;
41167;SDS011;26906;45.658;9.272;2023-01-19T08:24:19;1.77;;;1.15;;
41167;SDS011;26906;45.658;9.272;2023-01-19T08:26:47;1.30;;;1.20;;
41167;SDS011;26906;45.658;9.272;2023-01-19T08:29:13;2.08;;;1.70;;
41167;SDS011;26906;45.658;9.272;2023-01-19T08:34:23;1.40;;;1.30;;
41167;SDS011;26906;45.658;9.272;2023-01-19T08:36:49;1.48;;;1.38;;
41167;SDS011;26906;45.658;9.272;2023-01-19T08:39:16;2.25;;;1.52;;
41167;SDS011;26906;45.658;9.272;2023-01-19T08:41:42;1.40;;;1.30;;
41167;SDS011;26906;45.658;9.272;2023-01-19T08:44:11;5.88;;;2.25;;
41167;SDS011;26906;45.658;9.272;2023-01-19T08:46:37;7.72;;;5.68;;
41167;SDS011;26906;45.658;9.272;2023-01-19T08:49:02;4.40;;;3.83;;
41167;SDS011;26906;45.658;9.272;2023-01-19T08:51:28;5.07;;;2.85;;
41167;SDS011;26906;45.658;9.272;2023-01-19T08:53:54;3.88;;;2.40;;
41167;SDS011;26906;45.658;9.272;2023-01-19T08:56:19;2.22;;;1.65;;
41167;SDS011;26906;45.658;9.272;2023-01-19T08:58:45;2.55;;;1.63;;
41167;SDS011;26906;45.658;9.272;2023-01-19T09:01:11;2.38;;;2.03;;
41167;SDS011;26906;45.658;9.272;2023-01-19T09:03:38;9.90;;;5.30;;
41167;SDS011;26906;45.658;9.272;2023-01-19T09:06:06;3.20;;;1.90;;
41167;SDS011;26906;45.658;9.272;2023-01-19T09:08:33;2.63;;;1.80;;
41167;SDS011;26906;45.658;9.272;2023-01-19T09:10:58;3.70;;;1.95;;
41167;SDS011;26906;45.658;9.272;2023-01-19T09:13:24;3.40;;;2.42;;
41167;SDS011;26906;45.658;9.272;2023-01-19T09:15:50;3.97;;;2.58;;
41167;SDS011;26906;45.658;9.272;2023-01-19T09:18:18;3.15;;;1.90;;
41167;SDS011;26906;45.658;9.272;2023-01-19T09:20:45;4.60;;;1.60;;
41167;SDS011;26906;45.658;9.272;2023-01-19T09:23:13;6.03;;;4.97;;
41167;SDS011;26906;45.658;9.272;2023-01-19T09:25:41;4.78;;;3.50;;
41167;SDS011;26906;45.658;9.272;2023-01-19T09:28:09;3.15;;;2.85;;
41167;SDS011;26906;45.658;9.272;2023-01-19T09:30:38;2.42;;;1.90;;
41167;SDS011;26906;45.658;9.272;2023-01-19T09:33:06;6.43;;;2.25;;
41167;SDS011;26906;45.658;9.272;2023-01-19T09:35:35;3.03;;;1.50;;
41167;SDS011;26906;45.658;9.272;2023-01-19T09:38:01;1.65;;;1.45;;
41167;SDS011;26906;45.658;9.272;2023-01-19T09:40:28;4.25;;;1.42;;
41167;SDS011;26906;45.658;9.272;2023-01-19T09:42:55;1.25;;;1.15;;
41167;SDS011;26906;45.658;9.272;2023-01-19T09:45:36;1.63;;;1.17;;
41167;SDS011;26906;45.658;9.272;2023-01-19T09:50:58;1.75;;;1.23;;
41167;SDS011;26906;45.658;9.272;2023-01-19T09:53:32;2.83;;;1.15;;
41167;SDS011;26906;45.658;9.272;2023-01-19T09:56:20;2.47;;;1.70;;
41167;SDS011;26906;45.658;9.272;2023-01-19T09:58:53;2.22;;;1.70;;
41167;SDS011;26906;45.658;9.272;2023-01-19T10:01:23;2.80;;;1.80;;
41167;SDS011;26906;45.658;9.272;2023-01-19T10:04:16;2.75;;;2.17;;
41167;SDS011;26906;45.658;9.272;2023-01-19T10:10:27;1.30;;;1.20;;
41167;SDS011;26906;45.658;9.272;2023-01-19T10:18:26;6.35;;;1.60;;
41167;SDS011;26906;45.658;9.272;2023-01-19T10:21:02;1.70;;;1.50;;
41167;SDS011;26906;45.658;9.272;2023-01-19T10:28:51;2.22;;;1.65;;
41167;SDS011;26906;45.658;9.272;2023-01-19T10:31:25;3.40;;;1.40;;
41167;SDS011;26906;45.658;9.272;2023-01-19T10:33:51;2.88;;;1.75;;
41167;SDS011;26906;45.658;9.272;2023-01-19T10:38:53;1.52;;;1.38;;
41167;SDS011;26906;45.658;9.272;2023-01-19T10:41:20;1.38;;;1.15;;
41167;SDS011;26906;45.658;9.272;2023-01-19T10:44:11;1.23;;;1.13;;
41167;SDS011;26906;45.658;9.272;2023-01-19T10:46:57;1.67;;;1.20;;
41167;SDS011;26906;45.658;9.272;2023-01-19T10:49:33;1.70;;;1.33;;
41167;SDS011;26906;45.658;9.272;2023-01-19T10:52:01;1.85;;;1.48;;
41167;SDS011;26906;45.658;9.272;2023-01-19T10:54:30;1.60;;;1.50;;
41167;SDS011;26906;45.658;9.272;2023-01-19T10:56:57;1.88;;;1.40;;
41167;SDS011;26906;45.658;9.272;2023-01-19T10:59:31;1.30;;;1.20;;
41167;SDS011;26906;45.658;9.272;2023-01-19T11:04:46;3.63;;;1.58;;
41167;SDS011;26906;45.658;9.272;2023-01-19T11:12:59;1.08;;;0.95;;
41167;SDS011;26906;45.658;9.272;2023-01-19T11:18:06;1.25;;;1.00;;
41167;SDS011;26906;45.658;9.272;2023-01-19T11:25:47;1.00;;;1.00;;
41167;SDS011;26906;45.658;9.272;2023-01-19T11:28:18;0.90;;;0.90;;
41167;SDS011;26906;45.658;9.272;2023-01-19T11:31:32;2.60;;;1.17;;
41167;SDS011;26906;45.658;9.272;2023-01-19T11:36:19;4.13;;;1.90;;
41167;SDS011;26906;45.658;9.272;2023-01-19T11:38:53;4.28;;;1.90;;
41167;SDS011;26906;45.658;9.272;2023-01-19T11:41:21;3.13;;;1.48;;
41167;SDS011;26906;45.658;9.272;2023-01-19T11:43:48;2.95;;;1.63;;
41167;SDS011;26906;45.658;9.272;2023-01-19T11:46:17;6.35;;;2.00;;
41167;SDS011;26906;45.658;9.272;2023-01-19T11:48:49;1.63;;;1.23;;
41167;SDS011;26906;45.658;9.272;2023-01-19T11:51:38;1.55;;;1.45;;
41167;SDS011;26906;45.658;9.272;2023-01-19T11:54:20;1.27;;;1.10;;
41167;SDS011;26906;45.658;9.272;2023-01-19T11:56:51;1.20;;;1.10;;
41167;SDS011;26906;45.658;9.272;2023-01-19T11:59:21;21.00;;;7.13;;
41167;SDS011;26906;45.658;9.272;2023-01-19T12:01:53;14.13;;;5.93;;
41167;SDS011;26906;45.658;9.272;2023-01-19T12:04:24;14.57;;;5.88;;
41167;SDS011;26906;45.658;9.272;2023-01-19T12:06:52;6.68;;;3.17;;
41167;SDS011;26906;45.658;9.272;2023-01-19T12:09:33;4.93;;;2.65;;
41167;SDS011;26906;45.658;9.272;2023-01-19T12:12:07;5.40;;;3.33;;
41167;SDS011;26906;45.658;9.272;2023-01-19T12:17:32;8.10;;;3.38;;
41167;SDS011;26906;45.658;9.272;2023-01-19T12:20:05;6.65;;;4.03;;
41167;SDS011;26906;45.658;9.272;2023-01-19T12:22:47;4.32;;;2.80;;
41167;SDS011;26906;45.658;9.272;2023-01-19T12:25:44;3.28;;;2.35;;
41167;SDS011;26906;45.658;9.272;2023-01-19T12:28:32;4.10;;;2.33;;
41167;SDS011;26906;45.658;9.272;2023-01-19T12:31:02;3.78;;;2.40;;
41167;SDS011;26906;45.658;9.272;2023-01-19T12:33:33;3.08;;;1.98;;
41167;SDS011;26906;45.658;9.272;2023-01-19T12:39:14;4.35;;;1.90;;
41167;SDS011;26906;45.658;9.272;2023-01-19T12:41:45;3.08;;;1.73;;
41167;SDS011;26906;45.658;9.272;2023-01-19T12:46:42;3.72;;;1.60;;
41167;SDS011;26906;45.658;9.272;2023-01-19T12:49:23;2.35;;;1.80;;
41167;SDS011;26906;45.658;9.272;2023-01-19T12:54:52;2.05;;;1.83;;
41167;SDS011;26906;45.658;9.272;2023-01-19T12:57:38;3.20;;;1.75;;
41167;SDS011;26906;45.658;9.272;2023-01-19T13:02:42;3.50;;;1.60;;
41167;SDS011;26906;45.658;9.272;2023-01-19T13:05:20;4.00;;;1.75;;
41167;SDS011;26906;45.658;9.272;2023-01-19T13:15:42;3.08;;;1.40;;
41167;SDS011;26906;45.658;9.272;2023-01-19T13:18:08;2.10;;;1.30;;
41167;SDS011;26906;45.658;9.272;2023-01-19T13:20:42;4.57;;;1.33;;
41167;SDS011;26906;45.658;9.272;2023-01-19T13:26:20;3.65;;;1.45;;
41167;SDS011;26906;45.658;9.272;2023-01-19T13:28:52;2.30;;;1.55;;
41167;SDS011;26906;45.658;9.272;2023-01-19T13:31:21;4.47;;;2.70;;
41167;SDS011;26906;45.658;9.272;2023-01-19T13:33:56;4.60;;;2.60;;
41167;SDS011;26906;45.658;9.272;2023-01-19T13:36:28;3.72;;;1.70;;
41167;SDS011;26906;45.658;9.272;2023-01-19T13:39:00;3.17;;;1.75;;
41167;SDS011;26906;45.658;9.272;2023-01-19T13:41:30;2.08;;;1.50;;
41167;SDS011;26906;45.658;9.272;2023-01-19T13:44:02;2.95;;;1.60;;
41167;SDS011;26906;45.658;9.272;2023-01-19T13:46:33;2.70;;;1.65;;
41167;SDS011;26906;45.658;9.272;2023-01-19T13:49:04;2.65;;;1.70;;
41167;SDS011;26906;45.658;9.272;2023-01-19T13:54:32;13.32;;;3.42;;
41167;SDS011;26906;45.658;9.272;2023-01-19T13:56:57;4.50;;;2.90;;
41167;SDS011;26906;45.658;9.272;2023-01-19T13:59:23;5.35;;;1.80;;
41167;SDS011;26906;45.658;9.272;2023-01-19T14:01:48;3.35;;;1.90;;
41167;SDS011;26906;45.658;9.272;2023-01-19T14:07:04;3.63;;;1.83;;
41167;SDS011;26906;45.658;9.272;2023-01-19T14:09:37;2.67;;;1.55;;
41167;SDS011;26906;45.658;9.272;2023-01-19T14:12:09;5.22;;;1.73;;
41167;SDS011;26906;45.658;9.272;2023-01-19T14:14:35;5.10;;;2.47;;
41167;SDS011;26906;45.658;9.272;2023-01-19T14:17:02;3.42;;;2.00;;
41167;SDS011;26906;45.658;9.272;2023-01-19T14:19:45;5.55;;;3.20;;
41167;SDS011;26906;45.658;9.272;2023-01-19T14:22:14;2.67;;;1.90;;
41167;SDS011;26906;45.658;9.272;2023-01-19T14:24:40;3.92;;;1.73;;
41167;SDS011;26906;45.658;9.272;2023-01-19T14:27:24;7.93;;;2.50;;
41167;SDS011;26906;45.658;9.272;2023-01-19T14:29:50;3.28;;;2.30;;
41167;SDS011;26906;45.658;9.272;2023-01-19T14:32:34;4.32;;;3.10;;
41167;SDS011;26906;45.658;9.272;2023-01-19T14:35:11;3.53;;;2.38;;
41167;SDS011;26906;45.658;9.272;2023-01-19T14:37:48;5.40;;;2.78;;
41167;SDS011;26906;45.658;9.272;2023-01-19T14:40:16;2.58;;;2.20;;
41167;SDS011;26906;45.658;9.272;2023-01-19T14:42:46;4.70;;;2.40;;
41167;SDS011;26906;45.658;9.272;2023-01-19T14:45:21;4.65;;;2.17;;
41167;SDS011;26906;45.658;9.272;2023-01-19T14:48:11;3.50;;;2.15;;
41167;SDS011;26906;45.658;9.272;2023-01-19T14:50:42;6.68;;;2.33;;
41167;SDS011;26906;45.658;9.272;2023-01-19T14:53:16;6.50;;;2.17;;
41167;SDS011;26906;45.658;9.272;2023-01-19T14:55:57;3.33;;;2.38;;
41167;SDS011;26906;45.658;9.272;2023-01-19T14:58:26;4.53;;;3.38;;
41167;SDS011;26906;45.658;9.272;2023-01-19T15:00:56;6.25;;;3.20;;
41167;SDS011;26906;45.658;9.272;2023-01-19T15:03:22;3.28;;;2.78;;
41167;SDS011;26906;45.658;9.272;2023-01-19T15:05:48;6.07;;;2.67;;
41167;SDS011;26906;45.658;9.272;2023-01-19T15:08:15;6.93;;;2.75;;
41167;SDS011;26906;45.658;9.272;2023-01-19T15:10:54;4.63;;;2.75;;
41167;SDS011;26906;45.658;9.272;2023-01-19T15:13:25;6.50;;;3.00;;
41167;SDS011;26906;45.658;9.272;2023-01-19T15:15:51;4.43;;;2.78;;
41167;SDS011;26906;45.658;9.272;2023-01-19T15:18:24;4.55;;;3.28;;
41167;SDS011;26906;45.658;9.272;2023-01-19T15:20:54;4.93;;;2.97;;
41167;SDS011;26906;45.658;9.272;2023-01-19T15:23:20;5.75;;;2.90;;
41167;SDS011;26906;45.658;9.272;2023-01-19T15:25:46;4.00;;;2.83;;
41167;SDS011;26906;45.658;9.272;2023-01-19T15:28:14;5.03;;;3.10;;
41167;SDS011;26906;45.658;9.272;2023-01-19T15:30:42;4.97;;;3.53;;
41167;SDS011;26906;45.658;9.272;2023-01-19T15:33:14;6.55;;;3.72;;
41167;SDS011;26906;45.658;9.272;2023-01-19T15:35:46;8.63;;;5.13;;
41167;SDS011;26906;45.658;9.272;2023-01-19T15:38:12;13.27;;;5.53;;
41167;SDS011;26906;45.658;9.272;2023-01-19T15:40:37;7.63;;;4.70;;
41167;SDS011;26906;45.658;9.272;2023-01-19T15:43:03;11.43;;;5.20;;
41167;SDS011;26906;45.658;9.272;2023-01-19T15:45:36;12.50;;;4.50;;
41167;SDS011;26906;45.658;9.272;2023-01-19T15:48:06;6.28;;;3.70;;
41167;SDS011;26906;45.658;9.272;2023-01-19T15:50:37;5.10;;;3.15;;
41167;SDS011;26906;45.658;9.272;2023-01-19T15:53:12;9.32;;;4.03;;
41167;SDS011;26906;45.658;9.272;2023-01-19T15:55:40;7.95;;;3.90;;
41167;SDS011;26906;45.658;9.272;2023-01-19T15:58:07;7.05;;;4.28;;
41167;SDS011;26906;45.658;9.272;2023-01-19T16:00:32;10.85;;;5.95;;
41167;SDS011;26906;45.658;9.272;2023-01-19T16:02:59;7.72;;;5.53;;
41167;SDS011;26906;45.658;9.272;2023-01-19T16:05:25;5.53;;;4.03;;
41167;SDS011;26906;45.658;9.272;2023-01-19T16:07:52;5.38;;;3.50;;
41167;SDS011;26906;45.658;9.272;2023-01-19T16:10:18;5.30;;;3.33;;
41167;SDS011;26906;45.658;9.272;2023-01-19T16:12:44;4.70;;;3.17;;
41167;SDS011;26906;45.658;9.272;2023-01-19T16:15:12;9.35;;;4.70;;
41167;SDS011;26906;45.658;9.272;2023-01-19T16:17:41;9.55;;;6.18;;
41167;SDS011;26906;45.658;9.272;2023-01-19T16:20:08;39.45;;;19.30;;
41167;SDS011;26906;45.658;9.272;2023-01-19T16:22:34;43.13;;;20.15;;
41167;SDS011;26906;45.658;9.272;2023-01-19T16:25:00;13.63;;;8.35;;
41167;SDS011;26906;45.658;9.272;2023-01-19T16:27:27;10.70;;;5.90;;
41167;SDS011;26906;45.658;9.272;2023-01-19T16:29:53;15.75;;;7.45;;
41167;SDS011;26906;45.658;9.272;2023-01-19T16:32:18;16.52;;;7.50;;
41167;SDS011;26906;45.658;9.272;2023-01-19T16:34:46;14.32;;;7.47;;
41167;SDS011;26906;45.658;9.272;2023-01-19T16:37:11;16.23;;;8.30;;
41167;SDS011;26906;45.658;9.272;2023-01-19T16:39:39;15.85;;;6.82;;
41167;SDS011;26906;45.658;9.272;2023-01-19T16:42:05;11.30;;;5.95;;
41167;SDS011;26906;45.658;9.272;2023-01-19T16:44:33;6.05;;;3.83;;
41167;SDS011;26906;45.658;9.272;2023-01-19T16:46:59;3.60;;;2.97;;
41167;SDS011;26906;45.658;9.272;2023-01-19T16:49:25;6.80;;;3.25;;
41167;SDS011;26906;45.658;9.272;2023-01-19T16:51:51;4.80;;;2.83;;
41167;SDS011;26906;45.658;9.272;2023-01-19T16:54:22;5.07;;;3.15;;
41167;SDS011;26906;45.658;9.272;2023-01-19T16:56:50;5.80;;;3.40;;
41167;SDS011;26906;45.658;9.272;2023-01-19T16:59:16;5.20;;;3.50;;
41167;SDS011;26906;45.658;9.272;2023-01-19T17:01:43;8.70;;;4.18;;
41167;SDS011;26906;45.658;9.272;2023-01-19T17:04:10;7.13;;;3.97;;
41167;SDS011;26906;45.658;9.272;2023-01-19T17:06:36;7.63;;;4.10;;
41167;SDS011;26906;45.658;9.272;2023-01-19T17:09:02;4.95;;;3.17;;
41167;SDS011;26906;45.658;9.272;2023-01-19T17:11:29;5.93;;;3.40;;
41167;SDS011;26906;45.658;9.272;2023-01-19T17:13:56;5.63;;;3.50;;
41167;SDS011;26906;45.658;9.272;2023-01-19T17:16:27;6.88;;;3.10;;
41167;SDS011;26906;45.658;9.272;2023-01-19T17:18:55;4.07;;;3.15;;
41167;SDS011;26906;45.658;9.272;2023-01-19T17:21:21;11.23;;;3.65;;
41167;SDS011;26906;45.658;9.272;2023-01-19T17:23:48;7.28;;;3.28;;
41167;SDS011;26906;45.658;9.272;2023-01-19T17:26:15;5.53;;;3.40;;
41167;SDS011;26906;45.658;9.272;2023-01-19T17:28:42;5.53;;;3.65;;
41167;SDS011;26906;45.658;9.272;2023-01-19T17:31:14;5.88;;;3.15;;
41167;SDS011;26906;45.658;9.272;2023-01-19T17:33:45;6.55;;;4.63;;
41167;SDS011;26906;45.658;9.272;2023-01-19T17:36:14;5.55;;;4.32;;
41167;SDS011;26906;45.658;9.272;2023-01-19T17:38:41;6.00;;;4.65;;
41167;SDS011;26906;45.658;9.272;2023-01-19T17:43:44;6.63;;;4.53;;
41167;SDS011;26906;45.658;9.272;2023-01-19T17:46:10;6.40;;;4.70;;
41167;SDS011;26906;45.658;9.272;2023-01-19T17:48:36;5.00;;;4.38;;
41167;SDS011;26906;45.658;9.272;2023-01-19T17:51:03;6.18;;;4.45;;
41167;SDS011;26906;45.658;9.272;2023-01-19T17:53:32;4.75;;;4.20;;
41167;SDS011;26906;45.658;9.272;2023-01-19T17:56:04;5.90;;;3.85;;
41167;SDS011;26906;45.658;9.272;2023-01-19T17:58:31;4.35;;;3.70;;
41167;SDS011;26906;45.658;9.272;2023-01-19T18:00:58;5.95;;;3.17;;
41167;SDS011;26906;45.658;9.272;2023-01-19T18:03:41;5.20;;;3.67;;
41167;SDS011;26906;45.658;9.272;2023-01-19T18:06:08;5.25;;;3.65;;
41167;SDS011;26906;45.658;9.272;2023-01-19T18:08:36;4.32;;;3.47;;
41167;SDS011;26906;45.658;9.272;2023-01-19T18:11:03;6.07;;;3.80;;
41167;SDS011;26906;45.658;9.272;2023-01-19T18:13:38;8.82;;;6.53;;
41167;SDS011;26906;45.658;9.272;2023-01-19T18:16:12;4.93;;;3.88;;
41167;SDS011;26906;45.658;9.272;2023-01-19T18:18:40;4.38;;;3.70;;
41167;SDS011;26906;45.658;9.272;2023-01-19T18:21:06;5.60;;;4.43;;
41167;SDS011;26906;45.658;9.272;2023-01-19T18:23:34;6.10;;;3.88;;
41167;SDS011;26906;45.658;9.272;2023-01-19T18:26:05;8.98;;;5.80;;
41167;SDS011;26906;45.658;9.272;2023-01-19T18:28:32;5.18;;;4.68;;
41167;SDS011;26906;45.658;9.272;2023-01-19T18:30:59;8.02;;;4.50;;
41167;SDS011;26906;45.658;9.272;2023-01-19T18:33:25;9.07;;;5.20;;
41167;SDS011;26906;45.658;9.272;2023-01-19T18:35:51;8.40;;;6.47;;
41167;SDS011;26906;45.658;9.272;2023-01-19T18:38:35;7.90;;;6.78;;
41167;SDS011;26906;45.658;9.272;2023-01-19T18:41:07;6.70;;;5.88;;
41167;SDS011;26906;45.658;9.272;2023-01-19T18:43:40;12.27;;;10.32;;
41167;SDS011;26906;45.658;9.272;2023-01-19T18:46:06;15.40;;;10.48;;
41167;SDS011;26906;45.658;9.272;2023-01-19T18:48:32;18.88;;;12.23;;
41167;SDS011;26906;45.658;9.272;2023-01-19T18:50:58;13.65;;;8.55;;
41167;SDS011;26906;45.658;9.272;2023-01-19T18:53:27;5.88;;;5.28;;
41167;SDS011;26906;45.658;9.272;2023-01-19T18:55:55;4.97;;;3.90;;
41167;SDS011;26906;45.658;9.272;2023-01-19T18:58:26;3.90;;;3.50;;
41167;SDS011;26906;45.658;9.272;2023-01-19T19:00:53;5.10;;;4.13;;
41167;SDS011;26906;45.658;9.272;2023-01-19T19:03:24;4.85;;;4.00;;
41167;SDS011;26906;45.658;9.272;2023-01-19T19:05:50;5.95;;;4.03;;
41167;SDS011;26906;45.658;9.272;2023-01-19T19:08:16;4.72;;;3.90;;
41167;SDS011;26906;45.658;9.272;2023-01-19T19:10:45;7.03;;;3.55;;
41167;SDS011;26906;45.658;9.272;2023-01-19T19:13:14;6.10;;;4.15;;
41167;SDS011;26906;45.658;9.272;2023-01-19T19:15:41;7.13;;;5.28;;
41167;SDS011;26906;45.658;9.272;2023-01-19T19:18:08;7.35;;;5.68;;
41167;SDS011;26906;45.658;9.272;2023-01-19T19:20:38;6.80;;;5.78;;
41167;SDS011;26906;45.658;9.272;2023-01-19T19:23:04;6.57;;;5.18;;
41167;SDS011;26906;45.658;9.272;2023-01-19T19:25:30;5.95;;;4.88;;
41167;SDS011;26906;45.658;9.272;2023-01-19T19:27:56;6.40;;;4.93;;
41167;SDS011;26906;45.658;9.272;2023-01-19T19:30:22;9.90;;;4.95;;
41167;SDS011;26906;45.658;9.272;2023-01-19T19:32:51;7.05;;;4.85;;
41167;SDS011;26906;45.658;9.272;2023-01-19T19:35:18;9.85;;;6.38;;
41167;SDS011;26906;45.658;9.272;2023-01-19T19:37:45;12.73;;;7.22;;
41167;SDS011;26906;45.658;9.272;2023-01-19T19:40:12;11.07;;;6.22;;
41167;SDS011;26906;45.658;9.272;2023-01-19T19:42:38;8.55;;;5.53;;
41167;SDS011;26906;45.658;9.272;2023-01-19T19:45:04;6.53;;;4.20;;
41167;SDS011;26906;45.658;9.272;2023-01-19T19:47:31;6.18;;;4.18;;
41167;SDS011;26906;45.658;9.272;2023-01-19T19:49:58;5.97;;;5.05;;
41167;SDS011;26906;45.658;9.272;2023-01-19T19:52:24;5.57;;;4.72;;
41167;SDS011;26906;45.658;9.272;2023-01-19T19:54:53;5.30;;;4.80;;
41167;SDS011;26906;45.658;9.272;2023-01-19T19:57:19;6.57;;;5.25;;
41167;SDS011;26906;45.658;9.272;2023-01-19T19:59:45;14.82;;;10.73;;
41167;SDS011;26906;45.658;9.272;2023-01-19T20:02:12;6.55;;;5.40;;
41167;SDS011;26906;45.658;9.272;2023-01-19T20:04:38;9.40;;;6.97;;
41167;SDS011;26906;45.658;9.272;2023-01-19T20:07:04;17.58;;;11.10;;
41167;SDS011;26906;45.658;9.272;2023-01-19T20:09:30;16.70;;;10.57;;
41167;SDS011;26906;45.658;9.272;2023-01-19T20:11:57;16.58;;;11.65;;
41167;SDS011;26906;45.658;9.272;2023-01-19T20:14:23;16.13;;;11.73;;
41167;SDS011;26906;45.658;9.272;2023-01-19T20:16:48;19.27;;;11.38;;
41167;SDS011;26906;45.658;9.272;2023-01-19T20:19:14;11.15;;;7.55;;
41167;SDS011;26906;45.658;9.272;2023-01-19T20:21:42;8.48;;;4.93;;
41167;SDS011;26906;45.658;9.272;2023-01-19T20:24:18;6.85;;;4.10;;
41167;SDS011;26906;45.658;9.272;2023-01-19T20:26:50;6.00;;;4.20;;
41167;SDS011;26906;45.658;9.272;2023-01-19T20:29:20;5.57;;;3.88;;
41167;SDS011;26906;45.658;9.272;2023-01-19T20:31:50;6.53;;;3.88;;
41167;SDS011;26906;45.658;9.272;2023-01-19T20:34:20;5.28;;;4.03;;
41167;SDS011;26906;45.658;9.272;2023-01-19T20:36:48;6.68;;;3.85;;
41167;SDS011;26906;45.658;9.272;2023-01-19T20:39:17;4.32;;;3.50;;
41167;SDS011;26906;45.658;9.272;2023-01-19T20:41:44;3.38;;;3.03;;
41167;SDS011;26906;45.658;9.272;2023-01-19T20:44:14;4.07;;;2.70;;
41167;SDS011;26906;45.658;9.272;2023-01-19T20:46:43;5.60;;;2.92;;
41167;SDS011;26906;45.658;9.272;2023-01-19T20:49:09;3.55;;;3.03;;
41167;SDS011;26906;45.658;9.272;2023-01-19T20:51:38;4.97;;;3.08;;
41167;SDS011;26906;45.658;9.272;2023-01-19T20:54:07;4.10;;;3.40;;
41167;SDS011;26906;45.658;9.272;2023-01-19T20:56:35;7.93;;;3.58;;
41167;SDS011;26906;45.658;9.272;2023-01-19T20:59:00;5.32;;;3.88;;
41167;SDS011;26906;45.658;9.272;2023-01-19T21:01:26;7.13;;;4.32;;
41167;SDS011;26906;45.658;9.272;2023-01-19T21:03:52;5.55;;;4.35;;
41167;SDS011;26906;45.658;9.272;2023-01-19T21:06:18;9.27;;;4.78;;
41167;SDS011;26906;45.658;9.272;2023-01-19T21:08:45;7.25;;;5.15;;
41167;SDS011;26906;45.658;9.272;2023-01-19T21:11:13;6.68;;;5.07;;
41167;SDS011;26906;45.658;9.272;2023-01-19T21:13:39;6.85;;;4.45;;
41167;SDS011;26906;45.658;9.272;2023-01-19T21:16:05;5.60;;;4.43;;
41167;SDS011;26906;45.658;9.272;2023-01-19T21:18:31;6.20;;;5.10;;
41167;SDS011;26906;45.658;9.272;2023-01-19T21:20:57;6.88;;;5.20;;
